Torino — 2BZH7 — position and weather

sailwx.info

Track history (hours):
 
Tides and Currents Weather Stations Pressure Air Temp Water Temp Dewpoint Dewpoint Depression Visibility Wind Speed Wind Dir Waves Ship Positions

Torino

Last reported at 2017-Dec-17 14:50 UTC. Time now 2017-Dec-17 15:54 UTC.
Position N 47°23' W 007°12'.

Length 200 m; draft 10.4 m.

Type: Cargo ship. MMSI: 235070707.

Date/timePositionNaut miles runAvg speedWind from/ knotsBaromVisibWave heightAir tempDewpointWater temp
2017-Dec-17 14:50N 47°23' W 007°12'817.6
2017-Dec-17 14:24N 47°29' W 007°06'1216.8
2017-Dec-17 13:40N 47°40' W 006°57'416.9
2017-Dec-17 13:27N 47°43' W 006°54'716.3
2017-Dec-17 13:00N 47°49' W 006°48'816.4
2017-Dec-17 12:29N 47°56' W 006°42'816.7
2017-Dec-17 12:00N 48°03' W 006°35'916.4
2017-Dec-17 11:28N 48°11' W 006°28'14416.2
2017-Dec-17 02:34N 49°42' W 003°39'216.2
2017-Dec-17 02:28N 49°43' W 003°37'816.4
2017-Dec-17 02:00N 49°47' W 003°26'816.4
2017-Dec-17 01:30N 49°51' W 003°16'816.9
2017-Dec-17 01:00N 49°56' W 003°04'917.4
2017-Dec-17 00:30N 49°59' W 002°52'917.8
2017-Dec-17 00:00N 50°02' W 002°39'5317.0
2017-Dec-16 20:53N 50°25' W 001°24'716.3
2017-Dec-16 20:26N 50°28' W 001°14'715.8
2017-Dec-16 20:00N 50°31' W 001°05'714.9
2017-Dec-16 19:30N 50°37' W 000°58'510.7
2017-Dec-16 19:00N 50°43' W 000°58'816.8
2017-Dec-16 18:31N 50°46' W 001°11'510.6
2017-Dec-16 18:00N 50°49' W 001°18'510.0
2017-Dec-16 17:30N 50°52' W 001°23'1 2.8
2017-Dec-16 17:00N 50°53' W 001°24'0 0.0
2017-Dec-16 16:28N 50°53' W 001°24'0 0.0
2017-Dec-16 15:58N 50°53' W 001°24'0 0.0
2017-Dec-16 15:28N 50°53' W 001°24'0 0.0
2017-Dec-16 14:58N 50°53' W 001°24'0 0.0
2017-Dec-16 14:29N 50°53' W 001°24'0 0.0
2017-Dec-16 13:59N 50°53' W 001°24'0 0.0
2017-Dec-16 13:28N 50°53' W 001°24'0 0.0
2017-Dec-16 12:58N 50°53' W 001°24'0 0.0
2017-Dec-16 12:28N 50°53' W 001°24'0 0.0
2017-Dec-16 11:58N 50°53' W 001°24'0 0.0
2017-Dec-16 11:23N 50°53' W 001°24'0 0.0
2017-Dec-16 10:58N 50°53' W 001°24'0 0.0
2017-Dec-16 10:28N 50°53' W 001°24'0 0.0
2017-Dec-16 09:55N 50°53' W 001°24'0 0.0
2017-Dec-16 09:22N 50°53' W 001°24'0 0.0
2017-Dec-16 08:52N 50°53' W 001°24'0 0.1
2017-Dec-16 08:28N 50°53' W 001°24'2 3.2
2017-Dec-16 08:00N 50°52' W 001°23'4 8.8
2017-Dec-16 07:30N 50°49' W 001°18'4 7.9
2017-Dec-16 07:00N 50°46' W 001°14'714.7
2017-Dec-16 06:30N 50°44' W 001°03'612.2
2017-Dec-16 06:01N 50°39' W 000°56'3 6.9
2017-Dec-16 05:30N 50°36' W 000°54'4 7.5
2017-Dec-16 05:00N 50°36' W 000°48'2 3.6
2017-Dec-16 04:31N 50°35' W 000°46'4 7.3
2017-Dec-16 04:01N 50°35' W 000°40'5 9.3
2017-Dec-16 03:31N 50°34' W 000°33'510.2
2017-Dec-16 03:01N 50°34' W 000°25'612.0
2017-Dec-16 02:31N 50°33' W 000°15'713.5
2017-Dec-16 02:01N 50°32' W 000°05'714.3
2017-Dec-16 01:31N 50°33' E 000°06'714.3
2017-Dec-16 01:01N 50°34' E 000°17'714.5
2017-Dec-16 00:31N 50°36' E 000°29'714.2
2017-Dec-16 00:01N 50°39' E 000°39'714.3
2017-Dec-15 23:31N 50°43' E 000°48'714.2
2017-Dec-15 23:01N 50°48' E 000°56'714.1
2017-Dec-15 22:30N 50°52' E 001°05'714.1
2017-Dec-15 22:00N 50°57' E 001°14'713.8
2017-Dec-15 21:30N 51°01' E 001°22'713.3
2017-Dec-15 21:01N 51°06' E 001°30'713.7
2017-Dec-15 20:31N 51°10' E 001°38'713.8
2017-Dec-15 20:01N 51°15' E 001°46'714.6
2017-Dec-15 19:31N 51°21' E 001°53'713.2
2017-Dec-15 19:00N 51°24' E 002°03'511.0
2017-Dec-15 18:30N 51°21' E 002°10'612.4
2017-Dec-15 18:00N 51°21' E 002°20'713.9
2017-Dec-15 17:30N 51°23' E 002°31'714.1
2017-Dec-15 17:00N 51°22' E 002°42'715.2
2017-Dec-15 16:30N 51°23' E 002°54'917.2
2017-Dec-15 16:00N 51°24' E 003°08'5 9.6
2017-Dec-15 15:31N 51°20' E 003°13'0 0.0
2017-Dec-15 15:01N 51°20' E 003°13'0 0.0
2017-Dec-15 14:31N 51°20' E 003°13'1 2.4
2017-Dec-15 14:01N 51°19' E 003°14'0 0.1
2017-Dec-15 13:28N 51°19' E 003°14'0 0.0
2017-Dec-15 12:58N 51°19' E 003°14'0 0.0
2017-Dec-15 12:28N 51°19' E 003°14'0 0.0
2017-Dec-15 11:58N 51°19' E 003°14'0 0.0
2017-Dec-15 11:28N 51°19' E 003°14'0 0.0
2017-Dec-15 10:58N 51°19' E 003°14'0 0.0
2017-Dec-15 10:28N 51°19' E 003°14'0 0.0
2017-Dec-15 09:58N 51°19' E 003°14'0 0.0
2017-Dec-15 09:28N 51°19' E 003°14'0 0.0
2017-Dec-15 08:58N 51°19' E 003°14'0 0.0
2017-Dec-15 08:28N 51°19' E 003°14'0 0.0
2017-Dec-15 07:58N 51°19' E 003°14'0 0.0
2017-Dec-15 07:28N 51°19' E 003°14'0 0.0
2017-Dec-15 06:58N 51°19' E 003°14'0 0.0
2017-Dec-15 06:28N 51°19' E 003°14'0 0.0
2017-Dec-15 05:58N 51°19' E 003°14'0 0.0
2017-Dec-15 05:28N 51°19' E 003°14'0 0.0
2017-Dec-15 04:58N 51°19' E 003°14'0 0.0
2017-Dec-15 04:28N 51°19' E 003°14'0 0.0
2017-Dec-15 03:55N 51°19' E 003°14'0 0.0
2017-Dec-15 02:25N 51°19' E 003°14'0 0.0
2017-Dec-15 00:58N 51°19' E 003°14'0 0.0
2017-Dec-15 00:28N 51°19' E 003°14'0 0.0
2017-Dec-14 18:28N 51°19' E 003°14'0 0.0
2017-Dec-14 17:58N 51°19' E 003°14'0 0.0
2017-Dec-14 17:28N 51°19' E 003°14'0 0.0
2017-Dec-14 16:58N 51°19' E 003°14'0 0.0
2017-Dec-14 16:28N 51°19' E 003°14'0 0.0
2017-Dec-14 15:55N 51°19' E 003°14'0 0.0
2017-Dec-14 14:55N 51°19' E 003°14'0 0.0
2017-Dec-14 14:28N 51°19' E 003°14'0 0.0
2017-Dec-14 13:58N 51°19' E 003°14'0 0.0
2017-Dec-14 13:28N 51°19' E 003°14'0 0.0
2017-Dec-14 12:55N 51°19' E 003°14'0 0.0
2017-Dec-14 12:28N 51°19' E 003°14'0 0.0
2017-Dec-14 12:00N 51°19' E 003°14'0 0.6
2017-Dec-14 11:30N 51°19' E 003°13'1 2.0
2017-Dec-14 11:00N 51°20' E 003°13'0 0.0
2017-Dec-14 10:30N 51°20' E 003°13'1 1.7
2017-Dec-14 10:00N 51°21' E 003°12'5 9.9
2017-Dec-14 09:30N 51°24' E 003°06'612.8
2017-Dec-14 09:00N 51°22' E 002°56'713.7
2017-Dec-14 08:30N 51°21' E 002°45'4 4.0
2017-Dec-14 07:23N 51°23' E 002°38'4 5.1
2017-Dec-14 06:31N 51°22' E 002°31'0 5.9
2017-Dec-14 06:30N 51°22' E 002°31'4 7.5
2017-Dec-14 06:00N 51°21' E 002°26'4 8.5
2017-Dec-14 05:30N 51°19' E 002°20'4 7.4
2017-Dec-14 05:00N 51°19' E 002°14'3 7.0
2017-Dec-14 04:30N 51°20' E 002°19'2 4.1
2017-Dec-14 04:00N 51°21' E 002°22'4 7.0
2017-Dec-14 03:30N 51°22' E 002°27'4 6.6
2017-Dec-14 02:57N 51°23' E 002°33'4 9.6
2017-Dec-14 02:30N 51°21' E 002°27'5 9.6
2017-Dec-14 02:00N 51°19' E 002°20'3 6.0
2017-Dec-14 01:30N 51°20' E 002°15'3 6.2
2017-Dec-14 01:00N 51°20' E 002°20'3 6.1
2017-Dec-14 00:30N 51°21' E 002°24'3 6.3
2017-Dec-14 00:00N 51°23' E 002°29'8410.5
2017-Dec-13 16:03N 52°37' E 003°31'313.7
2017-Dec-13 15:48N 52°40' E 003°34'413.5
2017-Dec-13 15:30N 52°43' E 003°38'713.3
2017-Dec-13 14:57N 52°49' E 003°46'1612.8
2017-Dec-13 13:43N 53°00' E 004°04'312.5
2017-Dec-13 13:29N 53°02' E 004°08'612.4
2017-Dec-13 13:00N 53°06' E 004°16'912.2
2017-Dec-13 12:16N 53°12' E 004°26'412.3
2017-Dec-13 11:57N 53°15' E 004°30'1412.5
2017-Dec-13 10:50N 53°28' E 004°38'412.8
2017-Dec-13 10:30N 53°30' E 004°45'713.1
2017-Dec-13 10:00N 53°33' E 004°55'712.8
2017-Dec-13 09:28N 53°35' E 005°06'612.7
2017-Dec-13 09:00N 53°37' E 005°15'7813.2
2017-Dec-13 03:05N 53°58' E 007°23'212.6
2017-Dec-13 02:54N 53°59' E 007°27'511.8
2017-Dec-13 02:30N 53°59' E 007°34'611.6
2017-Dec-13 02:00N 53°56' E 007°43'611.5
2017-Dec-13 01:30N 53°53' E 007°51'611.6
2017-Dec-13 01:00N 53°51' E 008°00'815.2
2017-Dec-13 00:30N 53°46' E 008°10'816.6
2017-Dec-13 00:00N 53°41' E 008°21'815.9
2017-Dec-12 23:30N 53°36' E 008°31'2 4.2
2017-Dec-12 23:00N 53°34' E 008°33'0 0.4
2017-Dec-12 22:30N 53°34' E 008°33'0 0.6
2017-Dec-12 21:58N 53°35' E 008°33'0 0.0
2017-Dec-12 21:28N 53°35' E 008°33'0 0.0
2017-Dec-12 20:58N 53°35' E 008°33'0 0.0
2017-Dec-12 20:28N 53°35' E 008°33'0 0.0
2017-Dec-12 19:55N 53°35' E 008°33'0 0.0
2017-Dec-12 19:28N 53°35' E 008°33'0 0.0
2017-Dec-12 18:58N 53°35' E 008°33'0 0.0
2017-Dec-12 18:28N 53°35' E 008°33'0 0.0
2017-Dec-12 17:58N 53°35' E 008°33'0 0.0
2017-Dec-12 17:28N 53°35' E 008°33'0 0.0
2017-Dec-12 16:58N 53°35' E 008°33'0 0.0
2017-Dec-12 16:29N 53°35' E 008°33'0 0.0
2017-Dec-12 15:58N 53°35' E 008°33'0 0.0
2017-Dec-12 15:28N 53°35' E 008°33'0 0.0
2017-Dec-12 14:58N 53°35' E 008°33'0 0.0
2017-Dec-12 14:28N 53°35' E 008°33'0 0.0
2017-Dec-12 13:58N 53°35' E 008°33'0 0.0
2017-Dec-12 13:28N 53°35' E 008°33'0 0.0
2017-Dec-12 12:59N 53°35' E 008°33'0 0.0
2017-Dec-12 12:29N 53°35' E 008°33'0 0.0
2017-Dec-12 11:58N 53°35' E 008°33'0 0.0
2017-Dec-12 11:29N 53°35' E 008°33'0 0.0
2017-Dec-12 10:58N 53°35' E 008°33'0 0.0
2017-Dec-12 10:28N 53°35' E 008°33'0 0.0
2017-Dec-12 09:58N 53°35' E 008°33'0 0.0
2017-Dec-12 09:29N 53°35' E 008°33'0 0.0
2017-Dec-12 08:58N 53°35' E 008°33'0 0.0
2017-Dec-12 08:28N 53°35' E 008°33'0 0.0
2017-Dec-12 07:58N 53°35' E 008°33'0 0.0
2017-Dec-12 07:28N 53°35' E 008°33'0 0.0
2017-Dec-12 06:58N 53°35' E 008°33'0 0.0
2017-Dec-12 06:28N 53°35' E 008°33'0 0.0
2017-Dec-12 05:58N 53°35' E 008°33'0 0.0
2017-Dec-12 05:28N 53°35' E 008°33'0 0.0
2017-Dec-12 04:58N 53°35' E 008°33'0 0.0
2017-Dec-12 04:28N 53°35' E 008°33'0 0.0
2017-Dec-12 03:58N 53°35' E 008°33'0 0.0
2017-Dec-12 03:28N 53°35' E 008°33'0 0.0
2017-Dec-12 02:58N 53°35' E 008°33'0 0.0
2017-Dec-12 02:29N 53°35' E 008°33'0 0.0
2017-Dec-12 01:58N 53°35' E 008°33'0 0.0
2017-Dec-12 01:29N 53°35' E 008°33'0 0.0
2017-Dec-12 00:58N 53°35' E 008°33'0 0.0
2017-Dec-12 00:28N 53°35' E 008°33'0 0.0
2017-Dec-11 23:59N 53°35' E 008°33'0 0.0
2017-Dec-11 23:28N 53°35' E 008°33'0 0.0
2017-Dec-11 22:59N 53°35' E 008°33'0 0.0
2017-Dec-11 22:29N 53°35' E 008°33'0 0.0
2017-Dec-11 21:59N 53°35' E 008°33'0 0.0
2017-Dec-11 21:29N 53°35' E 008°33'0 0.0
2017-Dec-11 20:58N 53°35' E 008°33'0 0.0
2017-Dec-11 20:28N 53°35' E 008°33'0 0.0
2017-Dec-11 19:58N 53°35' E 008°33'0 0.0
2017-Dec-11 19:28N 53°35' E 008°33'0 0.0
2017-Dec-11 18:58N 53°35' E 008°33'0 0.0
2017-Dec-11 18:28N 53°35' E 008°33'0 0.0
2017-Dec-11 17:58N 53°35' E 008°33'0 0.0
2017-Dec-11 17:28N 53°35' E 008°33'0 0.0
2017-Dec-11 16:58N 53°35' E 008°33'0 0.0
2017-Dec-11 16:28N 53°35' E 008°33'0 0.0
2017-Dec-11 15:58N 53°35' E 008°33'0 0.0
2017-Dec-11 15:28N 53°35' E 008°33'0 0.0
2017-Dec-11 14:58N 53°35' E 008°33'0 0.0
2017-Dec-11 14:29N 53°35' E 008°33'0 0.0
2017-Dec-11 13:58N 53°35' E 008°33'0 0.0
2017-Dec-11 13:28N 53°35' E 008°33'0 0.0
2017-Dec-11 12:59N 53°35' E 008°33'0 0.0
2017-Dec-11 12:28N 53°35' E 008°33'0 0.0
2017-Dec-11 11:59N 53°35' E 008°33'0 0.0
2017-Dec-11 11:28N 53°35' E 008°33'0 0.0
2017-Dec-11 10:58N 53°35' E 008°33'0 0.0
2017-Dec-11 10:29N 53°35' E 008°33'0 0.0
2017-Dec-11 09:58N 53°35' E 008°33'0 0.0
2017-Dec-11 09:28N 53°35' E 008°33'0 0.0
2017-Dec-11 08:58N 53°35' E 008°33'0 0.0
2017-Dec-11 08:28N 53°35' E 008°33'0 0.0
2017-Dec-11 07:58N 53°35' E 008°33'0 0.0
2017-Dec-11 07:29N 53°35' E 008°33'0 0.0
2017-Dec-11 06:58N 53°35' E 008°33'0 0.0
2017-Dec-11 06:28N 53°35' E 008°33'0 0.0
2017-Dec-11 05:58N 53°35' E 008°33'0 0.0
2017-Dec-11 05:28N 53°35' E 008°33'0 0.0
2017-Dec-11 04:58N 53°35' E 008°33'0 0.0
2017-Dec-11 04:30N 53°35' E 008°33'0 0.9
2017-Dec-11 04:00N 53°34' E 008°33'0 1.0
2017-Dec-11 03:30N 53°34' E 008°33'3 5.8
2017-Dec-11 03:00N 53°36' E 008°30'713.7
2017-Dec-11 02:30N 53°41' E 008°22'714.1
2017-Dec-11 02:01N 53°45' E 008°12'713.8
2017-Dec-11 01:30N 53°50' E 008°04'713.9
2017-Dec-11 01:00N 53°52' E 007°53'510.0
2017-Dec-11 00:29N 53°53' E 007°44'4 6.6
2017-Dec-10 23:52N 53°54' E 007°37'77 9.3
2017-Dec-10 15:37N 53°35' E 005°32'210.4
2017-Dec-10 15:26N 53°35' E 005°29'510.5
2017-Dec-10 15:00N 53°33' E 005°21'510.6
2017-Dec-10 14:30N 53°31' E 005°13'510.4
2017-Dec-10 14:00N 53°30' E 005°05'510.8
2017-Dec-10 13:30N 53°27' E 004°56'510.8
2017-Dec-10 13:00N 53°25' E 004°48'510.3
2017-Dec-10 12:30N 53°22' E 004°41'810.6
2017-Dec-10 11:45N 53°15' E 004°35'310.4
2017-Dec-10 11:30N 53°12' E 004°33'610.7
2017-Dec-10 10:59N 53°08' E 004°28'510.8
2017-Dec-10 10:30N 53°03' E 004°24'510.7
2017-Dec-10 10:00N 52°59' E 004°20'510.6
2017-Dec-10 09:30N 52°54' E 004°17'510.8
2017-Dec-10 09:00N 52°49' E 004°13'510.7
2017-Dec-10 08:30N 52°45' E 004°06'816.2
2017-Dec-10 08:00N 52°39' E 003°57'918.0
2017-Dec-10 07:30N 52°32' E 003°48'6812.2
2017-Dec-10 01:55N 51°42' E 002°33'711.5
2017-Dec-10 01:21N 51°37' E 002°26'411.4
2017-Dec-10 01:00N 51°34' E 002°22'611.5
2017-Dec-10 00:30N 51°30' E 002°16'611.4
2017-Dec-10 00:00N 51°25' E 002°11'510.4
2017-Dec-09 23:30N 51°20' E 002°08'510.7
2017-Dec-09 23:00N 51°15' E 002°05'511.0
2017-Dec-09 22:31N 51°12' E 001°58'611.3
2017-Dec-09 22:01N 51°09' E 001°51'611.3
2017-Dec-09 21:31N 51°06' E 001°43'611.3
2017-Dec-09 21:01N 51°02' E 001°37'611.5
2017-Dec-09 20:31N 50°58' E 001°30'611.6
2017-Dec-09 20:00N 50°53' E 001°26'611.5
2017-Dec-09 19:30N 50°47' E 001°24'611.3
2017-Dec-09 18:58N 50°41' E 001°20'511.6
2017-Dec-09 18:30N 50°38' E 001°14'1211.4
2017-Dec-09 17:26N 50°29' E 000°60'511.3
2017-Dec-09 17:01N 50°28' E 000°53'611.3
2017-Dec-09 16:30N 50°26' E 000°44'1711.4
2017-Dec-09 15:03N 50°22' E 000°19'411.4
2017-Dec-09 14:42N 50°21' E 000°13'511.3
2017-Dec-09 14:14N 50°19' E 000°05'311.5
2017-Dec-09 14:01N 50°19' E 000°01'1111.5
2017-Dec-09 13:05N 50°16' W 000°15'111.7
2017-Dec-09 13:00N 50°16' W 000°16'8511.7
2017-Dec-09 05:42N 49°53' W 002°24'2 9.6
2017-Dec-09 05:30N 49°53' W 002°27'910.0
2017-Dec-09 04:39N 49°50' W 002°40'410.4
2017-Dec-09 04:18N 49°49' W 002°45'310.6
2017-Dec-09 04:00N 49°49' W 002°50'1111.1
2017-Dec-09 03:00N 49°46' W 003°07'611.4
2017-Dec-09 02:27N 49°45' W 003°16'711.4
2017-Dec-09 01:48N 49°43' W 003°28'311.4
2017-Dec-09 01:30N 49°43' W 003°33'911.5
2017-Dec-09 00:42N 49°41' W 003°47'211.4
2017-Dec-09 00:30N 49°41' W 003°50'  
Track history (hours):
 
Tides and Currents Weather Stations Pressure Air Temp Water Temp Dewpoint Dewpoint Depression Visibility Wind Speed Wind Dir Waves Ship Positions

Torino

Last reported at 2017-Dec-17 14:50 UTC. Time now 2017-Dec-17 15:54 UTC.
Position N 47°23' W 007°12'.

Length 200 m; draft 10.4 m.

Type: Cargo ship. MMSI: 235070707.

Date/timePositionNaut miles runAvg speedWind from/ knotsBaromVisibWave heightAir tempDewpointWater temp
2017-Dec-17 14:50N 47°23' W 007°12'817.6
2017-Dec-17 14:24N 47°29' W 007°06'1216.8
2017-Dec-17 13:40N 47°40' W 006°57'416.9
2017-Dec-17 13:27N 47°43' W 006°54'716.3
2017-Dec-17 13:00N 47°49' W 006°48'816.4
2017-Dec-17 12:29N 47°56' W 006°42'816.7
2017-Dec-17 12:00N 48°03' W 006°35'916.4
2017-Dec-17 11:28N 48°11' W 006°28'14416.2
2017-Dec-17 02:34N 49°42' W 003°39'216.2
2017-Dec-17 02:28N 49°43' W 003°37'816.4
2017-Dec-17 02:00N 49°47' W 003°26'816.4
2017-Dec-17 01:30N 49°51' W 003°16'816.9
2017-Dec-17 01:00N 49°56' W 003°04'917.4
2017-Dec-17 00:30N 49°59' W 002°52'917.8
2017-Dec-17 00:00N 50°02' W 002°39'5317.0
2017-Dec-16 20:53N 50°25' W 001°24'716.3
2017-Dec-16 20:26N 50°28' W 001°14'715.8
2017-Dec-16 20:00N 50°31' W 001°05'714.9
2017-Dec-16 19:30N 50°37' W 000°58'510.7
2017-Dec-16 19:00N 50°43' W 000°58'816.8
2017-Dec-16 18:31N 50°46' W 001°11'510.6
2017-Dec-16 18:00N 50°49' W 001°18'510.0
2017-Dec-16 17:30N 50°52' W 001°23'1 2.8
2017-Dec-16 17:00N 50°53' W 001°24'0 0.0
2017-Dec-16 16:28N 50°53' W 001°24'0 0.0
2017-Dec-16 15:58N 50°53' W 001°24'0 0.0
2017-Dec-16 15:28N 50°53' W 001°24'0 0.0
2017-Dec-16 14:58N 50°53' W 001°24'0 0.0
2017-Dec-16 14:29N 50°53' W 001°24'0 0.0
2017-Dec-16 13:59N 50°53' W 001°24'0 0.0
2017-Dec-16 13:28N 50°53' W 001°24'0 0.0
2017-Dec-16 12:58N 50°53' W 001°24'0 0.0
2017-Dec-16 12:28N 50°53' W 001°24'0 0.0
2017-Dec-16 11:58N 50°53' W 001°24'0 0.0
2017-Dec-16 11:23N 50°53' W 001°24'0 0.0
2017-Dec-16 10:58N 50°53' W 001°24'0 0.0
2017-Dec-16 10:28N 50°53' W 001°24'0 0.0
2017-Dec-16 09:55N 50°53' W 001°24'0 0.0
2017-Dec-16 09:22N 50°53' W 001°24'0 0.0
2017-Dec-16 08:52N 50°53' W 001°24'0 0.1
2017-Dec-16 08:28N 50°53' W 001°24'2 3.2
2017-Dec-16 08:00N 50°52' W 001°23'4 8.8
2017-Dec-16 07:30N 50°49' W 001°18'4 7.9
2017-Dec-16 07:00N 50°46' W 001°14'714.7
2017-Dec-16 06:30N 50°44' W 001°03'612.2
2017-Dec-16 06:01N 50°39' W 000°56'3 6.9
2017-Dec-16 05:30N 50°36' W 000°54'4 7.5
2017-Dec-16 05:00N 50°36' W 000°48'2 3.6
2017-Dec-16 04:31N 50°35' W 000°46'4 7.3
2017-Dec-16 04:01N 50°35' W 000°40'5 9.3
2017-Dec-16 03:31N 50°34' W 000°33'510.2
2017-Dec-16 03:01N 50°34' W 000°25'612.0
2017-Dec-16 02:31N 50°33' W 000°15'713.5
2017-Dec-16 02:01N 50°32' W 000°05'714.3
2017-Dec-16 01:31N 50°33' E 000°06'714.3
2017-Dec-16 01:01N 50°34' E 000°17'714.5
2017-Dec-16 00:31N 50°36' E 000°29'714.2
2017-Dec-16 00:01N 50°39' E 000°39'714.3
2017-Dec-15 23:31N 50°43' E 000°48'714.2
2017-Dec-15 23:01N 50°48' E 000°56'714.1
2017-Dec-15 22:30N 50°52' E 001°05'714.1
2017-Dec-15 22:00N 50°57' E 001°14'713.8
2017-Dec-15 21:30N 51°01' E 001°22'713.3
2017-Dec-15 21:01N 51°06' E 001°30'713.7
2017-Dec-15 20:31N 51°10' E 001°38'713.8
2017-Dec-15 20:01N 51°15' E 001°46'714.6
2017-Dec-15 19:31N 51°21' E 001°53'713.2
2017-Dec-15 19:00N 51°24' E 002°03'511.0
2017-Dec-15 18:30N 51°21' E 002°10'612.4
2017-Dec-15 18:00N 51°21' E 002°20'713.9
2017-Dec-15 17:30N 51°23' E 002°31'714.1
2017-Dec-15 17:00N 51°22' E 002°42'715.2
2017-Dec-15 16:30N 51°23' E 002°54'917.2
2017-Dec-15 16:00N 51°24' E 003°08'5 9.6
2017-Dec-15 15:31N 51°20' E 003°13'0 0.0
2017-Dec-15 15:01N 51°20' E 003°13'0 0.0
2017-Dec-15 14:31N 51°20' E 003°13'1 2.4
2017-Dec-15 14:01N 51°19' E 003°14'0 0.1
2017-Dec-15 13:28N 51°19' E 003°14'0 0.0
2017-Dec-15 12:58N 51°19' E 003°14'0 0.0
2017-Dec-15 12:28N 51°19' E 003°14'0 0.0
2017-Dec-15 11:58N 51°19' E 003°14'0 0.0
2017-Dec-15 11:28N 51°19' E 003°14'0 0.0
2017-Dec-15 10:58N 51°19' E 003°14'0 0.0
2017-Dec-15 10:28N 51°19' E 003°14'0 0.0
2017-Dec-15 09:58N 51°19' E 003°14'0 0.0
2017-Dec-15 09:28N 51°19' E 003°14'0 0.0
2017-Dec-15 08:58N 51°19' E 003°14'0 0.0
2017-Dec-15 08:28N 51°19' E 003°14'0 0.0
2017-Dec-15 07:58N 51°19' E 003°14'0 0.0
2017-Dec-15 07:28N 51°19' E 003°14'0 0.0
2017-Dec-15 06:58N 51°19' E 003°14'0 0.0
2017-Dec-15 06:28N 51°19' E 003°14'0 0.0
2017-Dec-15 05:58N 51°19' E 003°14'0 0.0
2017-Dec-15 05:28N 51°19' E 003°14'0 0.0
2017-Dec-15 04:58N 51°19' E 003°14'0 0.0
2017-Dec-15 04:28N 51°19' E 003°14'0 0.0
2017-Dec-15 03:55N 51°19' E 003°14'0 0.0
2017-Dec-15 02:25N 51°19' E 003°14'0 0.0
2017-Dec-15 00:58N 51°19' E 003°14'0 0.0
2017-Dec-15 00:28N 51°19' E 003°14'0 0.0
2017-Dec-14 18:28N 51°19' E 003°14'0 0.0
2017-Dec-14 17:58N 51°19' E 003°14'0 0.0
2017-Dec-14 17:28N 51°19' E 003°14'0 0.0
2017-Dec-14 16:58N 51°19' E 003°14'0 0.0
2017-Dec-14 16:28N 51°19' E 003°14'0 0.0
2017-Dec-14 15:55N 51°19' E 003°14'0 0.0
2017-Dec-14 14:55N 51°19' E 003°14'0 0.0
2017-Dec-14 14:28N 51°19' E 003°14'0 0.0
2017-Dec-14 13:58N 51°19' E 003°14'0 0.0
2017-Dec-14 13:28N 51°19' E 003°14'0 0.0
2017-Dec-14 12:55N 51°19' E 003°14'0 0.0
2017-Dec-14 12:28N 51°19' E 003°14'0 0.0
2017-Dec-14 12:00N 51°19' E 003°14'0 0.6
2017-Dec-14 11:30N 51°19' E 003°13'1 2.0
2017-Dec-14 11:00N 51°20' E 003°13'0 0.0
2017-Dec-14 10:30N 51°20' E 003°13'1 1.7
2017-Dec-14 10:00N 51°21' E 003°12'5 9.9
2017-Dec-14 09:30N 51°24' E 003°06'612.8
2017-Dec-14 09:00N 51°22' E 002°56'713.7
2017-Dec-14 08:30N 51°21' E 002°45'4 4.0
2017-Dec-14 07:23N 51°23' E 002°38'4 5.1
2017-Dec-14 06:31N 51°22' E 002°31'0 5.9
2017-Dec-14 06:30N 51°22' E 002°31'4 7.5
2017-Dec-14 06:00N 51°21' E 002°26'4 8.5
2017-Dec-14 05:30N 51°19' E 002°20'4 7.4
2017-Dec-14 05:00N 51°19' E 002°14'3 7.0
2017-Dec-14 04:30N 51°20' E 002°19'2 4.1
2017-Dec-14 04:00N 51°21' E 002°22'4 7.0
2017-Dec-14 03:30N 51°22' E 002°27'4 6.6
2017-Dec-14 02:57N 51°23' E 002°33'4 9.6
2017-Dec-14 02:30N 51°21' E 002°27'5 9.6
2017-Dec-14 02:00N 51°19' E 002°20'3 6.0
2017-Dec-14 01:30N 51°20' E 002°15'3 6.2
2017-Dec-14 01:00N 51°20' E 002°20'3 6.1
2017-Dec-14 00:30N 51°21' E 002°24'3 6.3
2017-Dec-14 00:00N 51°23' E 002°29'8410.5
2017-Dec-13 16:03N 52°37' E 003°31'313.7
2017-Dec-13 15:48N 52°40' E 003°34'413.5
2017-Dec-13 15:30N 52°43' E 003°38'713.3
2017-Dec-13 14:57N 52°49' E 003°46'1612.8
2017-Dec-13 13:43N 53°00' E 004°04'312.5
2017-Dec-13 13:29N 53°02' E 004°08'612.4
2017-Dec-13 13:00N 53°06' E 004°16'912.2
2017-Dec-13 12:16N 53°12' E 004°26'412.3
2017-Dec-13 11:57N 53°15' E 004°30'1412.5
2017-Dec-13 10:50N 53°28' E 004°38'412.8
2017-Dec-13 10:30N 53°30' E 004°45'713.1
2017-Dec-13 10:00N 53°33' E 004°55'712.8
2017-Dec-13 09:28N 53°35' E 005°06'612.7
2017-Dec-13 09:00N 53°37' E 005°15'7813.2
2017-Dec-13 03:05N 53°58' E 007°23'212.6
2017-Dec-13 02:54N 53°59' E 007°27'511.8
2017-Dec-13 02:30N 53°59' E 007°34'611.6
2017-Dec-13 02:00N 53°56' E 007°43'611.5
2017-Dec-13 01:30N 53°53' E 007°51'611.6
2017-Dec-13 01:00N 53°51' E 008°00'815.2
2017-Dec-13 00:30N 53°46' E 008°10'816.6
2017-Dec-13 00:00N 53°41' E 008°21'815.9
2017-Dec-12 23:30N 53°36' E 008°31'2 4.2
2017-Dec-12 23:00N 53°34' E 008°33'0 0.4
2017-Dec-12 22:30N 53°34' E 008°33'0 0.6
2017-Dec-12 21:58N 53°35' E 008°33'0 0.0
2017-Dec-12 21:28N 53°35' E 008°33'0 0.0
2017-Dec-12 20:58N 53°35' E 008°33'0 0.0
2017-Dec-12 20:28N 53°35' E 008°33'0 0.0
2017-Dec-12 19:55N 53°35' E 008°33'0 0.0
2017-Dec-12 19:28N 53°35' E 008°33'0 0.0
2017-Dec-12 18:58N 53°35' E 008°33'0 0.0
2017-Dec-12 18:28N 53°35' E 008°33'0 0.0
2017-Dec-12 17:58N 53°35' E 008°33'0 0.0
2017-Dec-12 17:28N 53°35' E 008°33'0 0.0
2017-Dec-12 16:58N 53°35' E 008°33'0 0.0
2017-Dec-12 16:29N 53°35' E 008°33'0 0.0
2017-Dec-12 15:58N 53°35' E 008°33'0 0.0
2017-Dec-12 15:28N 53°35' E 008°33'0 0.0
2017-Dec-12 14:58N 53°35' E 008°33'0 0.0
2017-Dec-12 14:28N 53°35' E 008°33'0 0.0
2017-Dec-12 13:58N 53°35' E 008°33'0 0.0
2017-Dec-12 13:28N 53°35' E 008°33'0 0.0
2017-Dec-12 12:59N 53°35' E 008°33'0 0.0
2017-Dec-12 12:29N 53°35' E 008°33'0 0.0
2017-Dec-12 11:58N 53°35' E 008°33'0 0.0
2017-Dec-12 11:29N 53°35' E 008°33'0 0.0
2017-Dec-12 10:58N 53°35' E 008°33'0 0.0
2017-Dec-12 10:28N 53°35' E 008°33'0 0.0
2017-Dec-12 09:58N 53°35' E 008°33'0 0.0
2017-Dec-12 09:29N 53°35' E 008°33'0 0.0
2017-Dec-12 08:58N 53°35' E 008°33'0 0.0
2017-Dec-12 08:28N 53°35' E 008°33'0 0.0
2017-Dec-12 07:58N 53°35' E 008°33'0 0.0
2017-Dec-12 07:28N 53°35' E 008°33'0 0.0
2017-Dec-12 06:58N 53°35' E 008°33'0 0.0
2017-Dec-12 06:28N 53°35' E 008°33'0 0.0
2017-Dec-12 05:58N 53°35' E 008°33'0 0.0
2017-Dec-12 05:28N 53°35' E 008°33'0 0.0
2017-Dec-12 04:58N 53°35' E 008°33'0 0.0
2017-Dec-12 04:28N 53°35' E 008°33'0 0.0
2017-Dec-12 03:58N 53°35' E 008°33'0 0.0
2017-Dec-12 03:28N 53°35' E 008°33'0 0.0
2017-Dec-12 02:58N 53°35' E 008°33'0 0.0
2017-Dec-12 02:29N 53°35' E 008°33'0 0.0
2017-Dec-12 01:58N 53°35' E 008°33'0 0.0
2017-Dec-12 01:29N 53°35' E 008°33'0 0.0
2017-Dec-12 00:58N 53°35' E 008°33'0 0.0
2017-Dec-12 00:28N 53°35' E 008°33'0 0.0
2017-Dec-11 23:59N 53°35' E 008°33'0 0.0
2017-Dec-11 23:28N 53°35' E 008°33'0 0.0
2017-Dec-11 22:59N 53°35' E 008°33'0 0.0
2017-Dec-11 22:29N 53°35' E 008°33'0 0.0
2017-Dec-11 21:59N 53°35' E 008°33'0 0.0
2017-Dec-11 21:29N 53°35' E 008°33'0 0.0
2017-Dec-11 20:58N 53°35' E 008°33'0 0.0
2017-Dec-11 20:28N 53°35' E 008°33'0 0.0
2017-Dec-11 19:58N 53°35' E 008°33'0 0.0
2017-Dec-11 19:28N 53°35' E 008°33'0 0.0
2017-Dec-11 18:58N 53°35' E 008°33'0 0.0
2017-Dec-11 18:28N 53°35' E 008°33'0 0.0
2017-Dec-11 17:58N 53°35' E 008°33'0 0.0
2017-Dec-11 17:28N 53°35' E 008°33'0 0.0
2017-Dec-11 16:58N 53°35' E 008°33'0 0.0
2017-Dec-11 16:28N 53°35' E 008°33'0 0.0
2017-Dec-11 15:58N 53°35' E 008°33'0 0.0
2017-Dec-11 15:28N 53°35' E 008°33'0 0.0
2017-Dec-11 14:58N 53°35' E 008°33'0 0.0
2017-Dec-11 14:29N 53°35' E 008°33'0 0.0
2017-Dec-11 13:58N 53°35' E 008°33'0 0.0
2017-Dec-11 13:28N 53°35' E 008°33'0 0.0
2017-Dec-11 12:59N 53°35' E 008°33'0 0.0
2017-Dec-11 12:28N 53°35' E 008°33'0 0.0
2017-Dec-11 11:59N 53°35' E 008°33'0 0.0
2017-Dec-11 11:28N 53°35' E 008°33'0 0.0
2017-Dec-11 10:58N 53°35' E 008°33'0 0.0
2017-Dec-11 10:29N 53°35' E 008°33'0 0.0
2017-Dec-11 09:58N 53°35' E 008°33'0 0.0
2017-Dec-11 09:28N 53°35' E 008°33'0 0.0
2017-Dec-11 08:58N 53°35' E 008°33'0 0.0
2017-Dec-11 08:28N 53°35' E 008°33'0 0.0
2017-Dec-11 07:58N 53°35' E 008°33'0 0.0
2017-Dec-11 07:29N 53°35' E 008°33'0 0.0
2017-Dec-11 06:58N 53°35' E 008°33'0 0.0
2017-Dec-11 06:28N 53°35' E 008°33'0 0.0
2017-Dec-11 05:58N 53°35' E 008°33'0 0.0
2017-Dec-11 05:28N 53°35' E 008°33'0 0.0
2017-Dec-11 04:58N 53°35' E 008°33'0 0.0
2017-Dec-11 04:30N 53°35' E 008°33'0 0.9
2017-Dec-11 04:00N 53°34' E 008°33'0 1.0
2017-Dec-11 03:30N 53°34' E 008°33'3 5.8
2017-Dec-11 03:00N 53°36' E 008°30'713.7
2017-Dec-11 02:30N 53°41' E 008°22'714.1
2017-Dec-11 02:01N 53°45' E 008°12'713.8
2017-Dec-11 01:30N 53°50' E 008°04'713.9
2017-Dec-11 01:00N 53°52' E 007°53'510.0
2017-Dec-11 00:29N 53°53' E 007°44'4 6.6
2017-Dec-10 23:52N 53°54' E 007°37'77 9.3
2017-Dec-10 15:37N 53°35' E 005°32'210.4
2017-Dec-10 15:26N 53°35' E 005°29'510.5
2017-Dec-10 15:00N 53°33' E 005°21'510.6
2017-Dec-10 14:30N 53°31' E 005°13'510.4
2017-Dec-10 14:00N 53°30' E 005°05'510.8
2017-Dec-10 13:30N 53°27' E 004°56'510.8
2017-Dec-10 13:00N 53°25' E 004°48'510.3
2017-Dec-10 12:30N 53°22' E 004°41'810.6
2017-Dec-10 11:45N 53°15' E 004°35'310.4
2017-Dec-10 11:30N 53°12' E 004°33'610.7
2017-Dec-10 10:59N 53°08' E 004°28'510.8
2017-Dec-10 10:30N 53°03' E 004°24'510.7
2017-Dec-10 10:00N 52°59' E 004°20'510.6
2017-Dec-10 09:30N 52°54' E 004°17'510.8
2017-Dec-10 09:00N 52°49' E 004°13'510.7
2017-Dec-10 08:30N 52°45' E 004°06'816.2
2017-Dec-10 08:00N 52°39' E 003°57'918.0
2017-Dec-10 07:30N 52°32' E 003°48'6812.2
2017-Dec-10 01:55N 51°42' E 002°33'711.5
2017-Dec-10 01:21N 51°37' E 002°26'411.4
2017-Dec-10 01:00N 51°34' E 002°22'611.5
2017-Dec-10 00:30N 51°30' E 002°16'611.4
2017-Dec-10 00:00N 51°25' E 002°11'510.4
2017-Dec-09 23:30N 51°20' E 002°08'510.7
2017-Dec-09 23:00N 51°15' E 002°05'511.0
2017-Dec-09 22:31N 51°12' E 001°58'611.3
2017-Dec-09 22:01N 51°09' E 001°51'611.3
2017-Dec-09 21:31N 51°06' E 001°43'611.3
2017-Dec-09 21:01N 51°02' E 001°37'611.5
2017-Dec-09 20:31N 50°58' E 001°30'611.6
2017-Dec-09 20:00N 50°53' E 001°26'611.5
2017-Dec-09 19:30N 50°47' E 001°24'611.3
2017-Dec-09 18:58N 50°41' E 001°20'511.6
2017-Dec-09 18:30N 50°38' E 001°14'1211.4
2017-Dec-09 17:26N 50°29' E 000°60'511.3
2017-Dec-09 17:01N 50°28' E 000°53'611.3
2017-Dec-09 16:30N 50°26' E 000°44'1711.4
2017-Dec-09 15:03N 50°22' E 000°19'411.4
2017-Dec-09 14:42N 50°21' E 000°13'511.3
2017-Dec-09 14:14N 50°19' E 000°05'311.5
2017-Dec-09 14:01N 50°19' E 000°01'1111.5
2017-Dec-09 13:05N 50°16' W 000°15'111.7
2017-Dec-09 13:00N 50°16' W 000°16'8511.7
2017-Dec-09 05:42N 49°53' W 002°24'2 9.6
2017-Dec-09 05:30N 49°53' W 002°27'910.0
2017-Dec-09 04:39N 49°50' W 002°40'410.4
2017-Dec-09 04:18N 49°49' W 002°45'310.6
2017-Dec-09 04:00N 49°49' W 002°50'1111.1
2017-Dec-09 03:00N 49°46' W 003°07'611.4
2017-Dec-09 02:27N 49°45' W 003°16'711.4
2017-Dec-09 01:48N 49°43' W 003°28'311.4
2017-Dec-09 01:30N 49°43' W 003°33'911.5
2017-Dec-09 00:42N 49°41' W 003°47'211.4
2017-Dec-09 00:30N 49°41' W 003°50'  

Dump ship's entire track history